Time;durP1;ratioP1;P1;durP2;ratioP2;P2;SDS_P1;SDS_P2;PMS_P1;PMS_P2;Temp;Humidity;BMP_temperature;BMP_pressure;BME280_temperature;BME280_humidity;BME280_pressure;Samples;Min_cycle;Max_cycle;Signal;HPM_P1;HPM_P2
2022/05/30 00:01:31;;;;;;;0.30;0.20;;;22.00;44.70;;;;;;6172849;28;20433;-74
2022/05/30 00:04:31;;;;;;;0.55;0.30;;;22.00;44.80;;;;;;6191785;28;20494;-73
2022/05/30 00:07:32;;;;;;;0.40;0.38;;;22.00;44.80;;;;;;6194449;28;20085;-73
2022/05/30 00:10:32;;;;;;;0.30;0.30;;;22.00;44.80;;;;;;6173087;28;20033;-73
2022/05/30 00:13:33;;;;;;;0.20;0.20;;;22.00;44.80;;;;;;6182346;28;20473;-73
2022/05/30 00:16:34;;;;;;;0.20;0.20;;;22.00;44.80;;;;;;6196702;28;20105;-73
2022/05/30 00:19:37;;;;;;;0.30;0.30;;;22.00;44.80;;;;;;6180037;28;20548;-73
2022/05/30 00:22:37;;;;;;;0.45;0.20;;;22.00;44.80;;;;;;6172392;28;20029;-73
2022/05/30 00:25:44;;;;;;;0.77;0.32;;;22.00;44.70;;;;;;6171949;28;20578;-73
2022/05/30 00:28:44;;;;;;;0.32;0.28;;;22.00;44.60;;;;;;6180225;28;20031;-73
2022/05/30 00:31:45;;;;;;;0.30;0.25;;;22.00;44.70;;;;;;6195053;28;20034;-73
2022/05/30 00:34:45;;;;;;;0.30;0.28;;;22.00;44.70;;;;;;6179796;28;20042;-73
2022/05/30 00:37:46;;;;;;;0.38;0.20;;;22.00;44.70;;;;;;6172214;28;20026;-74
2022/05/30 00:40:46;;;;;;;0.40;0.30;;;22.00;44.70;;;;;;6171278;28;20078;-73
2022/05/30 00:43:48;;;;;;;0.20;0.20;;;22.00;44.80;;;;;;6179386;28;20721;-73
2022/05/30 00:46:48;;;;;;;0.30;0.20;;;22.00;44.60;;;;;;6196423;28;20389;-73
2022/05/30 00:49:49;;;;;;;0.25;0.13;;;22.00;44.70;;;;;;6181169;28;20058;-73
2022/05/30 00:52:49;;;;;;;0.40;0.30;;;22.00;44.70;;;;;;6177044;28;20473;-73
2022/05/30 00:55:50;;;;;;;0.63;0.38;;;22.00;44.60;;;;;;6173689;28;20363;-73
2022/05/30 00:58:51;;;;;;;0.30;0.20;;;22.00;44.60;;;;;;6172007;28;20045;-73
2022/05/30 01:01:52;;;;;;;0.57;0.30;;;22.00;44.40;;;;;;6171445;28;20023;-73
2022/05/30 01:08:12;;;;;;;0.55;0.30;;;22.00;44.60;;;;;;6195984;28;20117;-73
2022/05/30 01:11:13;;;;;;;0.40;0.30;;;22.00;44.60;;;;;;6172386;28;20673;-73
2022/05/30 01:14:14;;;;;;;0.52;0.38;;;22.00;44.40;;;;;;6178294;28;20029;-74
2022/05/30 01:17:16;;;;;;;0.20;0.20;;;22.00;44.50;;;;;;6195651;28;20761;-73
2022/05/30 01:20:44;;;;;;;0.20;0.20;;;22.00;44.40;;;;;;6181282;28;20432;-73
2022/05/30 01:24:17;;;;;;;0.15;0.13;;;22.00;44.40;;;;;;6172777;28;20027;-73
2022/05/30 01:27:36;;;;;;;0.50;0.30;;;22.00;44.40;;;;;;6190277;28;20050;-73
2022/05/30 01:30:39;;;;;;;0.20;0.20;;;22.00;44.50;;;;;;6182895;28;20084;-73
2022/05/30 01:33:40;;;;;;;0.10;0.10;;;22.00;44.50;;;;;;6195471;28;20058;-73
2022/05/30 01:36:40;;;;;;;0.20;0.20;;;22.00;44.40;;;;;;6178798;28;20060;-73
2022/05/30 01:39:41;;;;;;;0.30;0.20;;;22.00;44.60;;;;;;6188426;28;20103;-73
2022/05/30 01:42:41;;;;;;;0.43;0.30;;;22.00;44.40;;;;;;6170949;28;20023;-73
2022/05/30 01:45:42;;;;;;;0.38;0.22;;;22.00;44.40;;;;;;6185610;28;20442;-73
2022/05/30 01:48:45;;;;;;;0.38;0.30;;;22.00;44.30;;;;;;6195439;28;20054;-73
2022/05/30 01:51:46;;;;;;;0.20;0.20;;;22.00;44.30;;;;;;6172859;28;20660;-73
2022/05/30 01:54:46;;;;;;;0.75;0.30;;;22.00;44.40;;;;;;6181734;28;20029;-73
2022/05/30 01:57:47;;;;;;;0.30;0.15;;;22.00;44.40;;;;;;6200342;28;20030;-73
2022/05/30 02:00:48;;;;;;;0.30;0.22;;;22.00;44.40;;;;;;6183545;28;20501;-73
2022/05/30 02:03:50;;;;;;;0.20;0.20;;;22.00;44.30;;;;;;6175365;28;20023;-74
2022/05/30 02:06:51;;;;;;;0.22;0.20;;;22.00;44.40;;;;;;6195817;28;20523;-74
2022/05/30 02:09:51;;;;;;;0.20;0.20;;;22.00;44.40;;;;;;6192025;28;20077;-74
2022/05/30 02:12:52;;;;;;;0.30;0.30;;;22.00;44.40;;;;;;6172810;28;20038;-73
2022/05/30 02:19:12;;;;;;;0.30;0.30;;;22.00;44.30;;;;;;6199466;28;20030;-73
2022/05/30 02:22:18;;;;;;;0.10;0.10;;;22.00;44.30;;;;;;6177457;28;20081;-74
2022/05/30 02:25:18;;;;;;;0.73;0.43;;;22.00;44.20;;;;;;6181335;28;20037;-74
2022/05/30 02:28:19;;;;;;;0.17;0.17;;;22.00;44.30;;;;;;6199439;28;20752;-74
2022/05/30 02:31:19;;;;;;;0.10;0.10;;;22.00;44.30;;;;;;6185789;28;20030;-73
2022/05/30 02:37:39;;;;;;;0.25;0.25;;;22.00;44.20;;;;;;6175238;28;20027;-73
2022/05/30 02:40:39;;;;;;;0.28;0.25;;;22.00;44.30;;;;;;6181979;28;20077;-73
2022/05/30 02:43:39;;;;;;;0.20;0.20;;;22.00;44.30;;;;;;6199207;28;20050;-73
2022/05/30 02:46:40;;;;;;;0.10;0.10;;;22.00;44.20;;;;;;6184305;28;20035;-73
2022/05/30 02:49:41;;;;;;;0.22;0.20;;;22.00;44.30;;;;;;6174154;28;20023;-73
2022/05/30 02:52:41;;;;;;;0.22;0.20;;;22.00;44.20;;;;;;6195127;28;20018;-73
2022/05/30 02:55:42;;;;;;;0.35;0.20;;;22.00;44.20;;;;;;6193459;28;20105;-73
2022/05/30 02:58:43;;;;;;;0.10;0.10;;;22.00;44.20;;;;;;6174557;28;20089;-73
2022/05/30 03:01:44;;;;;;;0.20;0.20;;;22.00;44.20;;;;;;6172903;28;20037;-73
2022/05/30 03:04:44;;;;;;;0.10;0.10;;;22.00;44.10;;;;;;6174291;28;20039;-73
2022/05/30 03:07:45;;;;;;;0.20;0.20;;;22.00;44.00;;;;;;6194559;28;20026;-73
2022/05/30 03:10:46;;;;;;;0.10;0.10;;;22.00;44.10;;;;;;6195697;28;20529;-74
2022/05/30 03:13:46;;;;;;;0.22;0.20;;;22.00;44.10;;;;;;6174240;28;20035;-73
2022/05/30 03:16:47;;;;;;;0.20;0.20;;;22.00;44.10;;;;;;6184860;28;20033;-73
2022/05/30 03:19:47;;;;;;;0.82;0.20;;;22.00;44.20;;;;;;6195076;28;20035;-73
2022/05/30 03:22:48;;;;;;;0.38;0.20;;;22.00;44.10;;;;;;6181102;28;20087;-73
2022/05/30 03:25:49;;;;;;;0.32;0.30;;;22.00;44.10;;;;;;6196351;28;20531;-73
2022/05/30 03:28:50;;;;;;;0.43;0.20;;;22.00;44.10;;;;;;6172059;28;20085;-73
2022/05/30 03:31:50;;;;;;;0.45;0.28;;;22.00;44.20;;;;;;6182838;28;20040;-74
2022/05/30 03:34:51;;;;;;;0.20;0.20;;;22.00;44.20;;;;;;6198341;28;20027;-73
2022/05/30 03:37:51;;;;;;;0.20;0.20;;;22.00;44.20;;;;;;6180773;28;20084;-73
2022/05/30 03:40:52;;;;;;;0.28;0.10;;;22.00;44.20;;;;;;6174251;28;20030;-73
2022/05/30 03:43:52;;;;;;;0.20;0.20;;;22.00;44.10;;;;;;6197630;28;20034;-73
2022/05/30 03:46:53;;;;;;;0.20;0.17;;;22.00;44.10;;;;;;6190039;28;20049;-73
2022/05/30 03:50:00;;;;;;;0.20;0.20;;;22.00;44.10;;;;;;6173585;28;20038;-74
2022/05/30 03:53:05;;;;;;;0.22;0.22;;;22.00;44.10;;;;;;6189356;28;20092;-74
2022/05/30 03:56:05;;;;;;;0.20;0.20;;;22.00;44.10;;;;;;6197727;28;20026;-73
2022/05/30 03:59:07;;;;;;;0.38;0.20;;;22.00;44.10;;;;;;6197669;28;20030;-73
2022/05/30 04:02:07;;;;;;;0.50;0.20;;;22.00;44.00;;;;;;6197082;28;20030;-73
2022/05/30 04:05:09;;;;;;;0.30;0.20;;;22.00;44.00;;;;;;6197202;28;20043;-74
2022/05/30 04:08:09;;;;;;;0.40;0.20;;;22.00;44.10;;;;;;6181865;28;20019;-74
2022/05/30 04:11:10;;;;;;;0.20;0.20;;;22.00;44.00;;;;;;6173331;28;20031;-74
2022/05/30 04:14:10;;;;;;;0.68;0.30;;;22.00;44.00;;;;;;6195282;28;20080;-73
2022/05/30 04:17:11;;;;;;;0.20;0.20;;;22.00;44.10;;;;;;6190700;28;20030;-74
2022/05/30 04:20:12;;;;;;;0.20;0.20;;;22.00;44.10;;;;;;6172825;28;20500;-73
2022/05/30 04:23:13;;;;;;;0.43;0.22;;;22.00;44.10;;;;;;6186156;28;20208;-74
2022/05/30 04:26:16;;;;;;;0.20;0.20;;;22.00;44.00;;;;;;6195091;28;20413;-74
2022/05/30 04:29:16;;;;;;;0.13;0.13;;;22.00;44.00;;;;;;6174817;28;20527;-73
2022/05/30 04:32:17;;;;;;;0.50;0.20;;;22.00;44.10;;;;;;6172021;28;20155;-74
2022/05/30 04:35:19;;;;;;;1.17;0.20;;;22.00;44.10;;;;;;6172394;28;20033;-73
2022/05/30 04:38:19;;;;;;;0.50;0.30;;;22.00;44.10;;;;;;6167739;28;20077;-74
2022/05/30 04:41:20;;;;;;;0.38;0.28;;;22.00;44.00;;;;;;6196473;28;20030;-74
2022/05/30 04:44:20;;;;;;;0.70;0.30;;;22.00;43.90;;;;;;6176039;28;20097;-74
2022/05/30 04:47:21;;;;;;;0.30;0.20;;;22.00;44.00;;;;;;6175324;28;20034;-73
2022/05/30 04:50:21;;;;;;;0.30;0.20;;;22.00;44.10;;;;;;6192813;28;20084;-74
2022/05/30 04:53:22;;;;;;;0.20;0.20;;;22.00;44.00;;;;;;6185111;28;20035;-74
2022/05/30 04:56:23;;;;;;;0.75;0.30;;;22.00;44.00;;;;;;6172455;28;20025;-74
2022/05/30 05:03:20;;;;;;;0.30;0.20;;;22.00;44.00;;;;;;6181013;28;20034;-73
2022/05/30 05:06:21;;;;;;;0.55;0.10;;;22.00;44.00;;;;;;6195858;28;20085;-73
2022/05/30 05:09:49;;;;;;;0.20;0.20;;;22.00;44.00;;;;;;6178832;28;20027;-74
2022/05/30 05:12:49;;;;;;;0.20;0.20;;;22.00;44.00;;;;;;6174753;28;20104;-73
2022/05/30 05:15:55;;;;;;;0.57;0.47;;;22.00;44.00;;;;;;6192431;28;20066;-74
2022/05/30 05:18:57;;;;;;;0.30;0.20;;;22.00;44.00;;;;;;6180401;28;20062;-73
2022/05/30 05:21:57;;;;;;;0.25;0.20;;;22.00;44.00;;;;;;6169915;28;20062;-73
2022/05/30 05:24:58;;;;;;;1.52;0.35;;;22.00;43.90;;;;;;6190992;28;20034;-73
2022/05/30 05:27:58;;;;;;;0.28;0.22;;;22.00;43.90;;;;;;6192832;28;20062;-74
2022/05/30 05:30:59;;;;;;;0.57;0.30;;;22.00;44.00;;;;;;6171611;28;20041;-75
2022/05/30 05:34:02;;;;;;;0.20;0.20;;;22.00;44.00;;;;;;6180377;28;20108;-74
2022/05/30 05:37:03;;;;;;;0.20;0.20;;;22.00;44.10;;;;;;6195919;28;20022;-74
2022/05/30 05:40:04;;;;;;;0.30;0.20;;;22.00;44.00;;;;;;6177471;28;20058;-73
2022/05/30 05:43:04;;;;;;;0.57;0.30;;;22.00;44.00;;;;;;6173035;28;20023;-73
2022/05/30 05:46:15;;;;;;;0.22;0.22;;;22.00;43.90;;;;;;6195688;28;20389;-74
2022/05/30 05:49:15;;;;;;;0.50;0.25;;;22.00;44.10;;;;;;6185073;28;20110;-74
2022/05/30 05:52:17;;;;;;;0.40;0.30;;;22.00;43.70;;;;;;6150331;28;20096;-73
2022/05/30 05:55:17;;;;;;;1.98;0.82;;;22.10;43.70;;;;;;6174982;28;20039;-73
2022/05/30 05:58:18;;;;;;;2.13;0.90;;;22.10;43.80;;;;;;6170786;28;20042;-73
2022/05/30 06:01:28;;;;;;;2.08;0.90;;;22.10;43.80;;;;;;6189065;28;20030;-73
2022/05/30 06:04:28;;;;;;;4.72;0.80;;;22.10;43.80;;;;;;6185751;28;20034;-74
2022/05/30 06:07:29;;;;;;;3.53;0.80;;;22.10;43.90;;;;;;6180989;28;20500;-74
2022/05/30 06:10:29;;;;;;;1.00;0.70;;;22.10;43.90;;;;;;6175560;28;20022;-74
2022/05/30 06:13:30;;;;;;;0.93;0.60;;;22.10;43.90;;;;;;6195015;28;20029;-74
2022/05/30 06:16:37;;;;;;;2.35;0.90;;;22.10;44.00;;;;;;6170601;28;20062;-73
2022/05/30 06:19:38;;;;;;;3.20;0.70;;;22.10;43.70;;;;;;6177523;28;20033;-74
2022/05/30 06:22:38;;;;;;;3.33;0.70;;;22.10;43.80;;;;;;6191260;28;20743;-74
2022/05/30 06:25:39;;;;;;;1.98;0.85;;;22.10;43.80;;;;;;6176077;28;20075;-74
2022/05/30 06:28:40;;;;;;;1.02;0.60;;;22.20;43.80;;;;;;6171541;28;20992;-74
2022/05/30 06:31:41;;;;;;;7.53;0.80;;;22.10;43.80;;;;;;6193113;28;20035;-74
2022/05/30 06:34:41;;;;;;;1.35;0.68;;;22.30;43.70;;;;;;6194928;28;20081;-74
2022/05/30 06:37:42;;;;;;;2.53;0.80;;;22.30;43.70;;;;;;6194210;28;20077;-74
2022/05/30 06:40:43;;;;;;;5.80;0.60;;;22.20;43.60;;;;;;6194148;28;20080;-74
2022/05/30 06:43:44;;;;;;;2.08;0.65;;;22.30;43.70;;;;;;6198147;28;20063;-74
2022/05/30 06:46:45;;;;;;;2.35;0.60;;;22.30;43.70;;;;;;6179991;28;20042;-74
2022/05/30 06:49:46;;;;;;;3.13;0.47;;;22.30;43.70;;;;;;6195549;28;20027;-74
2022/05/30 06:52:46;;;;;;;1.15;0.60;;;22.30;43.60;;;;;;6197620;28;20069;-74
2022/05/30 06:55:49;;;;;;;5.55;1.00;;;22.30;43.60;;;;;;6197154;28;20037;-73
2022/05/30 06:58:51;;;;;;;1.40;0.60;;;22.30;43.60;;;;;;6195460;28;20031;-74
2022/05/30 07:01:52;;;;;;;2.70;0.77;;;22.30;43.60;;;;;;6171838;28;20150;-73
2022/05/30 07:04:53;;;;;;;1.05;0.70;;;22.30;43.80;;;;;;6175286;28;20118;-74
2022/05/30 07:07:56;;;;;;;2.72;0.77;;;22.30;43.90;;;;;;6175789;28;20041;-73
2022/05/30 07:10:56;;;;;;;1.40;0.60;;;22.20;44.00;;;;;;6188420;28;20397;-73
2022/05/30 07:13:57;;;;;;;1.17;0.65;;;22.20;44.10;;;;;;6199390;28;20033;-73
2022/05/30 07:16:58;;;;;;;2.17;0.80;;;22.20;43.90;;;;;;6178672;28;20569;-73
2022/05/30 07:19:58;;;;;;;3.88;1.00;;;22.30;44.10;;;;;;6178570;28;20385;-74
2022/05/30 07:23:00;;;;;;;3.33;0.80;;;22.20;44.10;;;;;;6198867;28;20046;-74
2022/05/30 07:26:06;;;;;;;2.47;0.93;;;22.20;44.10;;;;;;6183589;28;20050;-74
2022/05/30 07:29:08;;;;;;;12.98;1.10;;;22.20;44.00;;;;;;6175467;28;20022;-74
2022/05/30 07:32:09;;;;;;;2.92;0.85;;;22.30;44.10;;;;;;6194828;28;20042;-74
2022/05/30 07:35:09;;;;;;;4.18;1.30;;;22.30;44.10;;;;;;6195522;28;20046;-75
2022/05/30 07:38:10;;;;;;;3.88;1.13;;;22.30;44.20;;;;;;6174781;28;20038;-73
2022/05/30 07:41:11;;;;;;;5.43;1.08;;;22.30;44.20;;;;;;6185422;28;20070;-74
2022/05/30 07:44:11;;;;;;;4.03;1.20;;;22.30;44.10;;;;;;6198553;28;20023;-74
2022/05/30 07:47:14;;;;;;;2.53;1.20;;;22.30;44.00;;;;;;6182718;28;20122;-75
2022/05/30 07:50:14;;;;;;;2.38;1.17;;;22.30;44.00;;;;;;6198289;28;20023;-73
2022/05/30 07:53:15;;;;;;;3.00;1.08;;;22.30;44.00;;;;;;6198626;28;20026;-74
2022/05/30 07:56:17;;;;;;;1.98;1.00;;;22.30;44.00;;;;;;6188781;28;20105;-73
2022/05/30 07:59:18;;;;;;;2.88;1.20;;;22.30;43.90;;;;;;6174327;28;20050;-74
2022/05/30 08:02:18;;;;;;;1.98;0.85;;;22.30;43.90;;;;;;6179449;28;20027;-73
2022/05/30 08:05:20;;;;;;;1.90;1.10;;;22.30;43.90;;;;;;6193564;28;20045;-73
2022/05/30 08:08:20;;;;;;;4.05;1.20;;;22.20;43.90;;;;;;6174381;28;20037;-73
2022/05/30 08:11:22;;;;;;;5.25;1.60;;;22.20;43.90;;;;;;6182248;28;20023;-73
2022/05/30 08:14:22;;;;;;;6.03;1.60;;;22.20;43.70;;;;;;6197935;28;20397;-73
2022/05/30 08:17:23;;;;;;;4.22;1.60;;;22.10;43.70;;;;;;6181723;28;20054;-74
2022/05/30 08:20:29;;;;;;;4.35;1.60;;;22.20;43.50;;;;;;6173884;28;20508;-74
2022/05/30 08:23:30;;;;;;;3.55;1.30;;;22.10;43.40;;;;;;6173637;28;20031;-74
2022/05/30 08:26:31;;;;;;;4.10;1.30;;;22.20;43.50;;;;;;6181231;28;20077;-74
2022/05/30 08:29:32;;;;;;;5.88;1.80;;;22.10;43.30;;;;;;6197699;28;20022;-74
2022/05/30 08:32:34;;;;;;;7.65;1.95;;;22.00;43.90;;;;;;6197611;28;20046;-74
2022/05/30 08:35:35;;;;;;;7.60;1.45;;;21.90;44.30;;;;;;6196952;28;20524;-74
2022/05/30 08:38:37;;;;;;;6.40;1.83;;;21.80;44.60;;;;;;6174433;28;20151;-74
2022/05/30 08:41:57;;;;;;;5.38;1.73;;;21.80;45.00;;;;;;6179590;28;20471;-74
2022/05/30 08:44:57;;;;;;;7.93;1.67;;;21.70;45.90;;;;;;6193971;28;20043;-73
2022/05/30 08:48:00;;;;;;;7.95;2.05;;;21.70;45.50;;;;;;6189412;28;20093;-74
2022/05/30 08:51:34;;;;;;;11.77;1.75;;;21.70;45.50;;;;;;6178898;28;20039;-73
2022/05/30 08:55:05;;;;;;;6.57;1.88;;;21.60;45.50;;;;;;6173016;28;20066;-73
2022/05/30 08:58:36;;;;;;;9.48;1.77;;;21.60;45.30;;;;;;6178077;28;20168;-73
2022/05/30 09:01:42;;;;;;;4.72;1.50;;;21.60;45.80;;;;;;6192569;28;20037;-74
2022/05/30 09:05:17;;;;;;;5.32;1.88;;;21.60;46.10;;;;;;6182914;28;20105;-74
2022/05/30 09:08:43;;;;;;;7.03;1.80;;;21.60;45.90;;;;;;6189428;28;20037;-73
2022/05/30 09:11:53;;;;;;;8.02;2.00;;;21.60;47.20;;;;;;6193138;28;20489;-74
2022/05/30 09:15:06;;;;;;;4.47;2.20;;;21.50;46.20;;;;;;6172908;28;20023;-74
2022/05/30 09:18:21;;;;;;;7.35;1.83;;;21.50;46.20;;;;;;6186593;28;20026;-74
2022/05/30 09:21:25;;;;;;;6.00;1.90;;;21.50;46.10;;;;;;6191047;28;20030;-73
2022/05/30 09:24:27;;;;;;;6.18;1.90;;;21.50;46.10;;;;;;6172836;28;20027;-74
2022/05/30 09:27:27;;;;;;;5.00;2.00;;;21.50;45.90;;;;;;6179392;28;20038;-74
2022/05/30 09:30:44;;;;;;;4.40;1.50;;;21.50;45.70;;;;;;6196774;28;20523;-73
2022/05/30 09:33:57;;;;;;;4.38;1.75;;;21.50;46.00;;;;;;6196112;28;20046;-74
2022/05/30 09:36:58;;;;;;;5.13;1.67;;;21.50;45.60;;;;;;6194734;28;20064;-74
2022/05/30 09:39:59;;;;;;;5.55;1.83;;;21.50;45.90;;;;;;6197120;28;20109;-74
2022/05/30 09:43:00;;;;;;;5.90;1.63;;;21.50;46.30;;;;;;6186675;28;20029;-73
2022/05/30 09:46:34;;;;;;;3.58;1.50;;;21.50;46.60;;;;;;6172093;28;20158;-74
2022/05/30 09:49:47;;;;;;;8.45;1.50;;;21.50;47.10;;;;;;6193978;28;20030;-74
2022/05/30 09:52:47;;;;;;;5.78;2.00;;;21.50;46.40;;;;;;6189407;28;20030;-73
2022/05/30 09:55:51;;;;;;;4.13;1.50;;;21.50;46.40;;;;;;6171920;28;20035;-74
2022/05/30 09:59:06;;;;;;;3.40;1.60;;;21.50;46.50;;;;;;6180441;28;20026;-74
2022/05/30 10:02:22;;;;;;;4.87;1.60;;;21.50;46.60;;;;;;6196032;28;20018;-73
2022/05/30 10:05:27;;;;;;;2.67;1.50;;;21.50;47.00;;;;;;6172106;28;20031;-74
2022/05/30 10:08:30;;;;;;;5.03;1.83;;;21.50;46.80;;;;;;6181649;28;20019;-74
2022/05/30 10:11:34;;;;;;;4.00;1.58;;;21.50;46.80;;;;;;6195792;28;20176;-75
2022/05/30 10:14:39;;;;;;;2.90;1.33;;;21.50;47.00;;;;;;6198857;28;20034;-74
2022/05/30 10:17:40;;;;;;;2.80;1.30;;;21.50;47.20;;;;;;6197589;28;20422;-74
2022/05/30 10:21:00;;;;;;;4.72;1.60;;;21.50;46.90;;;;;;6183553;28;20022;-75
2022/05/30 10:31:31;;;;;;;3.20;1.30;;;21.50;47.30;;;;;;6175701;28;20481;-73
2022/05/30 10:35:09;;;;;;;4.22;1.40;;;21.50;47.40;;;;;;6189974;28;20109;-73
2022/05/30 10:38:31;;;;;;;1.65;1.02;;;21.50;47.50;;;;;;6199696;28;20065;-74
2022/05/30 10:41:52;;;;;;;2.42;1.30;;;21.50;47.60;;;;;;6199865;28;20377;-74
2022/05/30 10:45:01;;;;;;;4.88;1.55;;;21.40;47.60;;;;;;6183089;28;20038;-74
2022/05/30 10:48:08;;;;;;;2.63;1.30;;;21.40;47.60;;;;;;6184624;28;20038;-74
2022/05/30 10:51:25;;;;;;;2.28;1.30;;;21.40;47.80;;;;;;6199011;28;20031;-74
2022/05/30 10:54:45;;;;;;;2.00;0.95;;;21.40;47.80;;;;;;6172478;28;20030;-74
2022/05/30 10:57:56;;;;;;;3.08;1.30;;;21.50;47.80;;;;;;6198555;28;20053;-73
2022/05/30 11:01:09;;;;;;;3.22;1.30;;;21.50;47.70;;;;;;6173546;28;20030;-74
2022/05/30 11:04:25;;;;;;;1.65;1.05;;;21.50;47.80;;;;;;6183239;28;20380;-74
2022/05/30 11:07:40;;;;;;;2.63;1.33;;;21.50;47.80;;;;;;6199587;28;20077;-74
2022/05/30 11:11:16;;;;;;;3.08;1.60;;;21.50;47.90;;;;;;6162527;28;20547;-74
2022/05/30 11:15:10;;;;;;;3.42;1.48;;;21.40;47.70;;;;;;6131871;28;20038;-74
2022/05/30 11:18:20;;;;;;;2.35;1.10;;;21.40;47.70;;;;;;6133960;28;20030;-74
2022/05/30 11:21:33;;;;;;;1.85;1.20;;;21.40;47.60;;;;;;6175481;28;20933;-74
2022/05/30 11:24:35;;;;;;;3.10;1.40;;;21.40;47.50;;;;;;6182842;28;20058;-74
2022/05/30 11:27:41;;;;;;;2.60;1.38;;;21.40;47.70;;;;;;6199075;28;20081;-74
2022/05/30 11:31:00;;;;;;;2.90;1.55;;;21.40;47.60;;;;;;6182375;28;20038;-74
2022/05/30 11:34:28;;;;;;;5.38;2.17;;;21.40;47.70;;;;;;6177196;28;20077;-74
2022/05/30 11:37:47;;;;;;;4.40;1.58;;;21.40;47.80;;;;;;6174821;28;20493;-73
2022/05/30 11:41:01;;;;;;;6.25;2.20;;;21.40;47.90;;;;;;6190870;28;20030;-73
2022/05/30 11:44:10;;;;;;;9.13;3.30;;;21.40;47.90;;;;;;6197058;28;20022;-73
2022/05/30 11:47:26;;;;;;;10.68;3.10;;;21.40;47.80;;;;;;6197535;28;20026;-73
2022/05/30 11:50:56;;;;;;;9.88;3.95;;;21.40;47.70;;;;;;6198446;28;20026;-73
2022/05/30 11:54:20;;;;;;;6.28;2.33;;;21.40;47.70;;;;;;6180413;28;20043;-73
2022/05/30 11:57:43;;;;;;;10.80;4.28;;;21.40;47.80;;;;;;6183397;28;20022;-73
2022/05/30 12:00:47;;;;;;;14.38;4.53;;;21.40;47.80;;;;;;6198534;28;20030;-73
2022/05/30 12:04:18;;;;;;;10.95;4.10;;;21.40;47.80;;;;;;6197983;28;20027;-73
2022/05/30 12:07:48;;;;;;;10.60;4.55;;;21.40;47.80;;;;;;6171163;28;20042;-73
2022/05/30 12:11:07;;;;;;;15.18;4.50;;;21.40;47.90;;;;;;6184128;28;20031;-73
2022/05/30 12:14:22;;;;;;;12.05;3.97;;;21.40;47.90;;;;;;6195244;28;20114;-74
2022/05/30 12:24:42;;;;;;;21.25;7.47;;;21.40;47.90;;;;;;6180641;28;20482;-74
2022/05/30 12:27:42;;;;;;;22.65;7.78;;;21.40;47.90;;;;;;6171645;28;20077;-74
2022/05/30 12:30:45;;;;;;;42.72;11.57;;;21.40;48.00;;;;;;6165494;28;20088;-73
2022/05/30 12:33:48;;;;;;;26.83;9.35;;;21.40;48.10;;;;;;6195391;28;20058;-73
2022/05/30 12:36:49;;;;;;;50.38;14.18;;;21.40;48.20;;;;;;6194448;28;20027;-73
2022/05/30 12:39:51;;;;;;;56.90;17.08;;;21.40;48.00;;;;;;6196145;28;20470;-73
2022/05/30 12:43:07;;;;;;;38.05;12.88;;;21.40;48.20;;;;;;6192050;28;20110;-73
2022/05/30 12:46:11;;;;;;;37.40;10.93;;;21.40;48.20;;;;;;6185208;28;20039;-73
2022/05/30 12:49:33;;;;;;;65.82;18.13;;;21.30;48.00;;;;;;6191127;28;20038;-74
2022/05/30 12:52:51;;;;;;;64.90;21.52;;;21.40;48.20;;;;;;6174474;28;20493;-74
2022/05/30 12:55:54;;;;;;;76.20;24.17;;;21.40;48.20;;;;;;6178233;28;20018;-74
2022/05/30 12:59:04;;;;;;;63.42;20.17;;;21.30;48.10;;;;;;6196307;28;20031;-73
2022/05/30 13:02:07;;;;;;;69.82;21.00;;;21.30;48.20;;;;;;6180185;28;20023;-74
2022/05/30 13:05:45;;;;;;;97.05;28.33;;;21.30;48.20;;;;;;6171780;28;20126;-74
2022/05/30 13:08:54;;;;;;;54.22;16.88;;;21.30;48.10;;;;;;6120051;28;20035;-73
2022/05/30 13:12:19;;;;;;;52.45;16.77;;;21.30;48.30;;;;;;6162827;28;20026;-73
2022/05/30 13:15:45;;;;;;;56.42;19.35;;;21.30;48.40;;;;;;6194662;28;20133;-73
2022/05/30 13:18:45;;;;;;;56.92;17.17;;;21.30;48.40;;;;;;6168387;28;20034;-73
2022/05/30 13:21:49;;;;;;;59.05;19.08;;;21.30;48.40;;;;;;6175480;28;20029;-74
2022/05/30 13:24:52;;;;;;;49.22;16.88;;;21.30;48.50;;;;;;6170744;28;20440;-73
2022/05/30 13:27:53;;;;;;;52.03;17.05;;;21.30;48.50;;;;;;6171341;28;20070;-74
2022/05/30 13:30:56;;;;;;;57.17;19.30;;;21.30;48.50;;;;;;6173674;28;20490;-74
2022/05/30 13:33:56;;;;;;;65.28;22.77;;;21.30;48.50;;;;;;6194967;28;20050;-74
2022/05/30 13:36:59;;;;;;;53.60;18.58;;;21.30;48.50;;;;;;6183053;28;20038;-74
2022/05/30 13:40:08;;;;;;;58.00;19.25;;;21.30;48.50;;;;;;6168267;28;20052;-74
2022/05/30 13:43:14;;;;;;;47.13;16.02;;;21.30;48.60;;;;;;6190081;28;20057;-73
2022/05/30 13:46:14;;;;;;;60.15;18.73;;;21.30;48.60;;;;;;6183682;28;20081;-73
2022/05/30 13:49:29;;;;;;;58.65;17.73;;;21.30;48.60;;;;;;6200186;28;20388;-74
2022/05/30 13:52:32;;;;;;;57.50;20.02;;;21.30;48.60;;;;;;6186085;28;20101;-74
2022/05/30 13:55:32;;;;;;;54.97;18.50;;;21.30;48.70;;;;;;6178160;28;20425;-74
2022/05/30 13:58:38;;;;;;;52.72;19.27;;;21.30;48.70;;;;;;6199291;28;20092;-74
2022/05/30 14:01:38;;;;;;;47.38;16.33;;;21.30;48.80;;;;;;6196709;28;20507;-74
2022/05/30 14:04:43;;;;;;;55.88;19.42;;;21.30;48.70;;;;;;6202583;28;20057;-74
2022/05/30 14:07:48;;;;;;;56.30;18.88;;;21.30;48.80;;;;;;6190940;28;20097;-74
2022/05/30 14:10:48;;;;;;;47.53;16.93;;;21.30;48.80;;;;;;6175599;28;20034;-74
2022/05/30 14:13:54;;;;;;;48.70;17.15;;;21.30;48.80;;;;;;6198928;28;20026;-74
2022/05/30 14:16:56;;;;;;;;;;;21.30;48.90;;;;;;6203139;28;20049;-73
2022/05/30 14:20:12;;;;;;;49.17;17.40;;;21.30;48.90;;;;;;6202871;28;19917;-73
2022/05/30 14:23:16;;;;;;;42.65;16.40;;;21.30;48.90;;;;;;6192022;28;20092;-73
2022/05/30 14:26:24;;;;;;;41.67;15.48;;;21.30;48.90;;;;;;6202276;28;20058;-74
2022/05/30 14:29:31;;;;;;;46.58;16.52;;;21.30;49.00;;;;;;6176825;28;20033;-74
2022/05/30 14:32:35;;;;;;;40.75;15.07;;;21.30;49.00;;;;;;6185187;28;20144;-74
2022/05/30 14:35:35;;;;;;;40.05;15.50;;;21.30;49.00;;;;;;6200922;28;20029;-73
2022/05/30 14:38:44;;;;;;;36.97;15.10;;;21.30;48.90;;;;;;6186878;28;20034;-73
2022/05/30 14:42:01;;;;;;;41.75;15.43;;;21.30;49.00;;;;;;6178454;28;20470;-73
2022/05/30 14:45:15;;;;;;;40.08;14.93;;;21.30;49.10;;;;;;6185215;28;20400;-73
2022/05/30 14:48:20;;;;;;;40.72;14.98;;;21.30;49.10;;;;;;6202551;28;20033;-73
2022/05/30 14:51:30;;;;;;;38.53;14.75;;;21.30;49.10;;;;;;6202670;28;20450;-73
2022/05/30 14:54:51;;;;;;;39.67;13.75;;;21.30;49.10;;;;;;6200897;28;20485;-73
2022/05/30 14:57:54;;;;;;;31.02;13.63;;;21.30;49.10;;;;;;6195929;28;20046;-73
2022/05/30 15:01:01;;;;;;;36.83;14.50;;;21.30;49.10;;;;;;6173858;28;20527;-73
2022/05/30 15:04:05;;;;;;;37.92;14.10;;;21.30;49.10;;;;;;6189663;28;20093;-72
2022/05/30 15:07:12;;;;;;;35.42;14.00;;;21.30;49.20;;;;;;6198341;28;20118;-72
2022/05/30 15:10:23;;;;;;;32.22;13.30;;;21.20;49.10;;;;;;6174348;28;20056;-73
2022/05/30 15:13:23;;;;;;;31.02;12.45;;;21.30;49.20;;;;;;6181239;28;20031;-73
2022/05/30 15:16:25;;;;;;;29.67;11.77;;;21.20;49.20;;;;;;6198067;28;20449;-73
2022/05/30 15:19:26;;;;;;;34.22;13.68;;;21.20;49.90;;;;;;6181203;28;20034;-73
2022/05/30 15:22:26;;;;;;;33.70;12.40;;;21.20;49.20;;;;;;6173092;28;20401;-72
2022/05/30 15:25:29;;;;;;;32.25;13.05;;;21.20;49.10;;;;;;6174373;28;20065;-72
2022/05/30 15:28:30;;;;;;;30.15;12.55;;;21.20;49.20;;;;;;6189721;28;20117;-72
2022/05/30 15:31:31;;;;;;;33.17;12.23;;;21.20;49.20;;;;;;6173796;28;20359;-73
2022/05/30 15:34:33;;;;;;;30.20;11.38;;;21.20;49.20;;;;;;6188351;28;20125;-72
2022/05/30 15:37:33;;;;;;;29.88;12.52;;;21.20;49.20;;;;;;6197876;28;20029;-73
2022/05/30 15:40:37;;;;;;;29.98;11.63;;;21.20;49.20;;;;;;6174817;28;20058;-72
2022/05/30 15:43:38;;;;;;;29.20;10.88;;;21.20;49.20;;;;;;6180115;28;20026;-72
2022/05/30 15:46:53;;;;;;;29.76;11.74;;;21.20;50.00;;;;;;5789855;28;10001799;-73
2022/05/30 15:49:55;;;;;;;28.63;11.90;;;21.20;49.20;;;;;;6153905;28;20043;-72
2022/05/30 15:59:37;;;;;;;30.80;11.45;;;21.20;49.20;;;;;;5307604;28;10000979;-72
2022/05/30 16:02:38;;;;;;;27.65;11.32;;;21.20;49.20;;;;;;6191075;28;20126;-72
2022/05/30 16:05:39;;;;;;;25.30;10.90;;;21.20;49.20;;;;;;6186747;28;20015;-73
2022/05/30 16:08:47;;;;;;;24.05;9.82;;;21.20;49.30;;;;;;6176178;28;20030;-72
2022/05/30 16:11:50;;;;;;;21.65;10.30;;;21.20;49.20;;;;;;6178678;28;20026;-73
2022/05/30 16:14:51;;;;;;;26.15;10.60;;;21.20;49.30;;;;;;6194832;28;20034;-73
2022/05/30 16:17:51;;;;;;;23.35;9.60;;;21.20;49.30;;;;;;6173866;28;20118;-73
2022/05/30 16:20:52;;;;;;;21.58;9.23;;;21.20;49.30;;;;;;6190949;28;20484;-73
2022/05/30 16:23:59;;;;;;;23.63;10.60;;;21.20;49.40;;;;;;6192931;28;20384;-73
2022/05/30 16:27:05;;;;;;;23.05;9.50;;;21.20;49.30;;;;;;6179060;28;20038;-72
2022/05/30 16:30:07;;;;;;;22.20;9.43;;;21.20;49.30;;;;;;6187650;28;20081;-73
2022/05/30 16:33:09;;;;;;;20.52;9.18;;;21.20;49.40;;;;;;6192642;28;20065;-72